sensor_id;sensor_type;location;lat;lon;timestamp;temperature;humidity
52435;DHT22;38354;52.892;6.148;2022-11-28T04:07:56;7.10;99.90
52435;DHT22;38354;52.892;6.148;2022-11-28T04:10:59;7.10;99.90
52435;DHT22;38354;52.892;6.148;2022-11-28T04:13:53;7.00;99.90
52435;DHT22;38354;52.892;6.148;2022-11-28T04:19:29;7.10;99.90
52435;DHT22;38354;52.892;6.148;2022-11-28T04:22:07;7.10;99.90
52435;DHT22;38354;52.892;6.148;2022-11-28T04:24:43;7.10;99.90
52435;DHT22;38354;52.892;6.148;2022-11-28T04:27:14;7.10;99.90
52435;DHT22;38354;52.892;6.148;2022-11-28T04:29:44;7.10;99.90
52435;DHT22;38354;52.892;6.148;2022-11-28T04:32:12;7.10;99.90
52435;DHT22;38354;52.892;6.148;2022-11-28T04:34:42;7.10;99.90
52435;DHT22;38354;52.892;6.148;2022-11-28T04:37:13;7.10;99.90
52435;DHT22;38354;52.892;6.148;2022-11-28T04:39:42;7.10;99.90
52435;DHT22;38354;52.892;6.148;2022-11-28T04:42:29;7.20;99.90
52435;DHT22;38354;52.892;6.148;2022-11-28T04:47:46;7.20;99.90
52435;DHT22;38354;52.892;6.148;2022-11-28T04:50:12;7.20;99.90
52435;DHT22;38354;52.892;6.148;2022-11-28T04:52:58;7.20;99.90
52435;DHT22;38354;52.892;6.148;2022-11-28T04:58:43;7.20;99.90
52435;DHT22;38354;52.892;6.148;2022-11-28T05:01:15;7.30;99.90
52435;DHT22;38354;52.892;6.148;2022-11-28T05:03:50;7.30;99.90
52435;DHT22;38354;52.892;6.148;2022-11-28T05:06:31;7.30;99.90
52435;DHT22;38354;52.892;6.148;2022-11-28T05:08:57;7.30;99.90
52435;DHT22;38354;52.892;6.148;2022-11-28T05:11:23;7.30;99.90
52435;DHT22;38354;52.892;6.148;2022-11-28T05:13:49;7.30;99.90
52435;DHT22;38354;52.892;6.148;2022-11-28T05:16:15;7.30;99.90
52435;DHT22;38354;52.892;6.148;2022-11-28T05:18:41;7.30;99.90
52435;DHT22;38354;52.892;6.148;2022-11-28T05:21:07;7.40;99.90
52435;DHT22;38354;52.892;6.148;2022-11-28T05:23:41;7.40;99.90
52435;DHT22;38354;52.892;6.148;2022-11-28T05:26:09;7.40;99.90
52435;DHT22;38354;52.892;6.148;2022-11-28T05:28:35;7.40;99.90
52435;DHT22;38354;52.892;6.148;2022-11-28T05:31:01;7.40;99.90
52435;DHT22;38354;52.892;6.148;2022-11-28T05:33:28;7.40;99.90
52435;DHT22;38354;52.892;6.148;2022-11-28T05:35:55;7.40;99.90
52435;DHT22;38354;52.892;6.148;2022-11-28T05:38:21;7.40;99.90
52435;DHT22;38354;52.892;6.148;2022-11-28T05:40:47;7.40;99.90
52435;DHT22;38354;52.892;6.148;2022-11-28T05:43:13;7.40;99.90
52435;DHT22;38354;52.892;6.148;2022-11-28T05:45:40;7.50;99.90
52435;DHT22;38354;52.892;6.148;2022-11-28T05:48:06;7.40;99.90
52435;DHT22;38354;52.892;6.148;2022-11-28T05:50:31;7.50;99.90
52435;DHT22;38354;52.892;6.148;2022-11-28T05:52:57;7.40;99.90
52435;DHT22;38354;52.892;6.148;2022-11-28T05:55:23;7.50;99.90
52435;DHT22;38354;52.892;6.148;2022-11-28T05:57:49;7.50;99.90
52435;DHT22;38354;52.892;6.148;2022-11-28T06:00:15;7.50;99.90
52435;DHT22;38354;52.892;6.148;2022-11-28T06:02:41;7.50;99.90
52435;DHT22;38354;52.892;6.148;2022-11-28T06:05:06;7.50;99.90
52435;DHT22;38354;52.892;6.148;2022-11-28T06:07:32;7.50;99.90
52435;DHT22;38354;52.892;6.148;2022-11-28T06:09:58;7.50;99.90
52435;DHT22;38354;52.892;6.148;2022-11-28T06:12:24;7.50;99.90
52435;DHT22;38354;52.892;6.148;2022-11-28T06:14:49;7.50;99.90
52435;DHT22;38354;52.892;6.148;2022-11-28T06:17:15;7.60;99.90
52435;DHT22;38354;52.892;6.148;2022-11-28T06:19:41;7.60;99.90
52435;DHT22;38354;52.892;6.148;2022-11-28T06:22:06;7.50;99.90
52435;DHT22;38354;52.892;6.148;2022-11-28T06:24:32;7.60;99.90
52435;DHT22;38354;52.892;6.148;2022-11-28T06:26:58;7.50;99.90
52435;DHT22;38354;52.892;6.148;2022-11-28T06:29:23;7.60;99.90
52435;DHT22;38354;52.892;6.148;2022-11-28T06:31:49;7.60;99.90
52435;DHT22;38354;52.892;6.148;2022-11-28T06:34:14;7.60;99.90
52435;DHT22;38354;52.892;6.148;2022-11-28T06:36:42;7.60;99.90
52435;DHT22;38354;52.892;6.148;2022-11-28T06:39:12;7.60;99.90
52435;DHT22;38354;52.892;6.148;2022-11-28T06:41:37;7.60;99.90
52435;DHT22;38354;52.892;6.148;2022-11-28T06:44:03;7.60;99.90
52435;DHT22;38354;52.892;6.148;2022-11-28T06:46:31;7.60;99.90
52435;DHT22;38354;52.892;6.148;2022-11-28T06:48:59;7.60;99.90
52435;DHT22;38354;52.892;6.148;2022-11-28T06:51:48;7.60;99.90
52435;DHT22;38354;52.892;6.148;2022-11-28T06:54:14;7.60;99.90
52435;DHT22;38354;52.892;6.148;2022-11-28T06:56:43;7.60;99.90
52435;DHT22;38354;52.892;6.148;2022-11-28T06:59:25;7.60;99.90
52435;DHT22;38354;52.892;6.148;2022-11-28T07:02:25;7.60;99.90
52435;DHT22;38354;52.892;6.148;2022-11-28T07:07:41;7.60;99.90
52435;DHT22;38354;52.892;6.148;2022-11-28T07:10:10;7.60;99.90
52435;DHT22;38354;52.892;6.148;2022-11-28T07:12:55;7.60;99.90
52435;DHT22;38354;52.892;6.148;2022-11-28T07:15:34;7.60;99.90
52435;DHT22;38354;52.892;6.148;2022-11-28T07:18:00;7.60;99.90
52435;DHT22;38354;52.892;6.148;2022-11-28T07:20:34;7.60;99.90
52435;DHT22;38354;52.892;6.148;2022-11-28T07:23:00;7.60;99.90
52435;DHT22;38354;52.892;6.148;2022-11-28T07:25:26;7.60;99.90
52435;DHT22;38354;52.892;6.148;2022-11-28T07:27:51;7.60;99.90
52435;DHT22;38354;52.892;6.148;2022-11-28T07:30:17;7.60;99.90
52435;DHT22;38354;52.892;6.148;2022-11-28T07:32:44;7.70;99.90
52435;DHT22;38354;52.892;6.148;2022-11-28T07:35:10;7.70;99.90
52435;DHT22;38354;52.892;6.148;2022-11-28T07:37:36;7.70;99.90
52435;DHT22;38354;52.892;6.148;2022-11-28T07:40:03;7.70;99.90
52435;DHT22;38354;52.892;6.148;2022-11-28T07:42:28;7.70;99.90
52435;DHT22;38354;52.892;6.148;2022-11-28T07:44:54;7.70;99.90
52435;DHT22;38354;52.892;6.148;2022-11-28T07:47:20;7.70;99.90
52435;DHT22;38354;52.892;6.148;2022-11-28T07:49:46;7.70;99.90
52435;DHT22;38354;52.892;6.148;2022-11-28T07:52:12;7.70;99.90
52435;DHT22;38354;52.892;6.148;2022-11-28T07:54:37;7.70;99.90
52435;DHT22;38354;52.892;6.148;2022-11-28T07:57:03;7.70;99.90
52435;DHT22;38354;52.892;6.148;2022-11-28T07:59:29;7.60;99.90
52435;DHT22;38354;52.892;6.148;2022-11-28T08:01:54;7.70;99.90
52435;DHT22;38354;52.892;6.148;2022-11-28T08:04:20;7.70;99.90
52435;DHT22;38354;52.892;6.148;2022-11-28T08:06:45;7.70;99.90
52435;DHT22;38354;52.892;6.148;2022-11-28T08:09:11;7.70;99.90
52435;DHT22;38354;52.892;6.148;2022-11-28T08:11:37;7.70;99.90
52435;DHT22;38354;52.892;6.148;2022-11-28T08:14:03;7.70;99.90
52435;DHT22;38354;52.892;6.148;2022-11-28T08:16:30;7.70;99.90
52435;DHT22;38354;52.892;6.148;2022-11-28T08:18:58;7.70;99.90
52435;DHT22;38354;52.892;6.148;2022-11-28T08:21:29;7.70;99.90
52435;DHT22;38354;52.892;6.148;2022-11-28T08:23:58;7.70;99.90
52435;DHT22;38354;52.892;6.148;2022-11-28T08:26:25;7.70;99.90
52435;DHT22;38354;52.892;6.148;2022-11-28T08:28:51;7.70;99.90
52435;DHT22;38354;52.892;6.148;2022-11-28T08:31:24;7.70;99.90
52435;DHT22;38354;52.892;6.148;2022-11-28T08:33:54;7.80;99.90
52435;DHT22;38354;52.892;6.148;2022-11-28T08:36:20;7.70;99.90
52435;DHT22;38354;52.892;6.148;2022-11-28T08:38:46;7.70;99.90
52435;DHT22;38354;52.892;6.148;2022-11-28T08:41:20;7.70;99.90
52435;DHT22;38354;52.892;6.148;2022-11-28T08:43:47;7.70;99.90
52435;DHT22;38354;52.892;6.148;2022-11-28T08:46:15;7.80;99.90
52435;DHT22;38354;52.892;6.148;2022-11-28T08:48:42;7.70;99.90
52435;DHT22;38354;52.892;6.148;2022-11-28T08:51:12;7.80;99.90
52435;DHT22;38354;52.892;6.148;2022-11-28T08:53:39;7.80;99.90
52435;DHT22;38354;52.892;6.148;2022-11-28T08:56:05;7.80;99.90
52435;DHT22;38354;52.892;6.148;2022-11-28T08:58:31;7.80;99.90
52435;DHT22;38354;52.892;6.148;2022-11-28T09:00:59;7.80;99.90
52435;DHT22;38354;52.892;6.148;2022-11-28T09:03:25;7.80;99.90
52435;DHT22;38354;52.892;6.148;2022-11-28T09:05:51;7.80;99.90
52435;DHT22;38354;52.892;6.148;2022-11-28T09:08:19;7.90;99.90
52435;DHT22;38354;52.892;6.148;2022-11-28T09:10:45;7.90;99.90
52435;DHT22;38354;52.892;6.148;2022-11-28T09:13:12;7.90;99.90
52435;DHT22;38354;52.892;6.148;2022-11-28T09:15:40;7.90;99.90
52435;DHT22;38354;52.892;6.148;2022-11-28T09:18:06;7.90;99.90
52435;DHT22;38354;52.892;6.148;2022-11-28T09:20:32;7.90;99.90
52435;DHT22;38354;52.892;6.148;2022-11-28T09:22:58;7.90;99.90
52435;DHT22;38354;52.892;6.148;2022-11-28T09:25:23;7.90;99.90
52435;DHT22;38354;52.892;6.148;2022-11-28T09:27:49;8.00;99.90
52435;DHT22;38354;52.892;6.148;2022-11-28T09:30:15;8.00;99.90
52435;DHT22;38354;52.892;6.148;2022-11-28T09:32:41;8.00;99.90
52435;DHT22;38354;52.892;6.148;2022-11-28T09:35:07;8.00;99.90
52435;DHT22;38354;52.892;6.148;2022-11-28T09:37:32;8.00;99.90
52435;DHT22;38354;52.892;6.148;2022-11-28T09:39:58;8.10;99.90
52435;DHT22;38354;52.892;6.148;2022-11-28T09:42:33;8.00;99.90
52435;DHT22;38354;52.892;6.148;2022-11-28T09:45:06;8.10;99.90
52435;DHT22;38354;52.892;6.148;2022-11-28T09:47:36;8.10;99.90
52435;DHT22;38354;52.892;6.148;2022-11-28T09:50:11;8.10;99.90
52435;DHT22;38354;52.892;6.148;2022-11-28T09:58:03;8.10;99.90
52435;DHT22;38354;52.892;6.148;2022-11-28T10:00:37;8.10;99.90
52435;DHT22;38354;52.892;6.148;2022-11-28T10:08:45;8.10;99.90
52435;DHT22;38354;52.892;6.148;2022-11-28T10:19:31;8.10;99.90
52435;DHT22;38354;52.892;6.148;2022-11-28T10:21:59;8.20;99.90
52435;DHT22;38354;52.892;6.148;2022-11-28T10:24:41;8.10;99.90
52435;DHT22;38354;52.892;6.148;2022-11-28T10:27:11;8.10;99.90
52435;DHT22;38354;52.892;6.148;2022-11-28T10:29:52;8.10;99.90
52435;DHT22;38354;52.892;6.148;2022-11-28T10:32:37;8.20;99.90
52435;DHT22;38354;52.892;6.148;2022-11-28T10:35:35;8.10;99.90
52435;DHT22;38354;52.892;6.148;2022-11-28T10:38:10;8.20;99.90
52435;DHT22;38354;52.892;6.148;2022-11-28T10:56:54;8.30;99.90
52435;DHT22;38354;52.892;6.148;2022-11-28T10:59:34;8.30;99.90
52435;DHT22;38354;52.892;6.148;2022-11-28T11:02:59;8.30;99.90
52435;DHT22;38354;52.892;6.148;2022-11-28T11:05:19;8.30;99.90
52435;DHT22;38354;52.892;6.148;2022-11-28T11:07:51;8.30;99.90
52435;DHT22;38354;52.892;6.148;2022-11-28T11:10:26;8.30;99.90
52435;DHT22;38354;52.892;6.148;2022-11-28T11:12:54;8.30;99.90
52435;DHT22;38354;52.892;6.148;2022-11-28T11:15:29;8.30;99.90
52435;DHT22;38354;52.892;6.148;2022-11-28T11:17:56;8.30;99.90
52435;DHT22;38354;52.892;6.148;2022-11-28T11:23:27;8.30;99.90
52435;DHT22;38354;52.892;6.148;2022-11-28T11:25:53;8.30;99.90
52435;DHT22;38354;52.892;6.148;2022-11-28T11:28:47;8.30;99.90
52435;DHT22;38354;52.892;6.148;2022-11-28T11:31:24;8.40;99.90
52435;DHT22;38354;52.892;6.148;2022-11-28T11:33:59;8.40;99.90
52435;DHT22;38354;52.892;6.148;2022-11-28T11:36:37;8.40;99.90
52435;DHT22;38354;52.892;6.148;2022-11-28T11:41:36;8.50;99.90
52435;DHT22;38354;52.892;6.148;2022-11-28T11:44:32;8.50;99.90
52435;DHT22;38354;52.892;6.148;2022-11-28T11:52:17;8.50;99.90
52435;DHT22;38354;52.892;6.148;2022-11-28T11:57:43;8.50;99.90
52435;DHT22;38354;52.892;6.148;2022-11-28T12:00:17;8.50;99.90
52435;DHT22;38354;52.892;6.148;2022-11-28T12:02:48;8.50;99.90
52435;DHT22;38354;52.892;6.148;2022-11-28T12:05:20;8.50;99.90
52435;DHT22;38354;52.892;6.148;2022-11-28T12:07:57;8.50;99.90
52435;DHT22;38354;52.892;6.148;2022-11-28T12:10:27;8.50;99.90
52435;DHT22;38354;52.892;6.148;2022-11-28T12:12:54;8.50;99.90
52435;DHT22;38354;52.892;6.148;2022-11-28T12:15:26;8.50;99.90
52435;DHT22;38354;52.892;6.148;2022-11-28T12:21:03;8.60;99.90
52435;DHT22;38354;52.892;6.148;2022-11-28T12:26:38;8.60;99.90
52435;DHT22;38354;52.892;6.148;2022-11-28T12:42:33;8.60;99.90
52435;DHT22;38354;52.892;6.148;2022-11-28T12:48:07;8.60;99.90
52435;DHT22;38354;52.892;6.148;2022-11-28T12:50:43;8.60;99.90
52435;DHT22;38354;52.892;6.148;2022-11-28T12:56:27;8.60;99.90
52435;DHT22;38354;52.892;6.148;2022-11-28T13:10:44;8.60;99.90
52435;DHT22;38354;52.892;6.148;2022-11-28T13:13:22;8.60;99.90
52435;DHT22;38354;52.892;6.148;2022-11-28T13:16:18;8.60;99.90
52435;DHT22;38354;52.892;6.148;2022-11-28T13:19:11;8.60;99.90
52435;DHT22;38354;52.892;6.148;2022-11-28T13:30:29;8.60;99.90
52435;DHT22;38354;52.892;6.148;2022-11-28T13:35:47;8.60;99.90
52435;DHT22;38354;52.892;6.148;2022-11-28T13:38:17;8.70;99.90
52435;DHT22;38354;52.892;6.148;2022-11-28T13:41:00;8.60;99.90
52435;DHT22;38354;52.892;6.148;2022-11-28T13:46:01;8.70;99.90
52435;DHT22;38354;52.892;6.148;2022-11-28T13:51:15;8.70;99.90
52435;DHT22;38354;52.892;6.148;2022-11-28T13:53:43;8.70;99.90
52435;DHT22;38354;52.892;6.148;2022-11-28T13:59:01;8.70;99.90
52435;DHT22;38354;52.892;6.148;2022-11-28T14:04:10;8.70;99.90
52435;DHT22;38354;52.892;6.148;2022-11-28T14:14:31;8.70;99.90
52435;DHT22;38354;52.892;6.148;2022-11-28T14:20:15;8.70;99.90
52435;DHT22;38354;52.892;6.148;2022-11-28T14:25:31;8.70;99.90
52435;DHT22;38354;52.892;6.148;2022-11-28T14:28:01;8.70;99.90
52435;DHT22;38354;52.892;6.148;2022-11-28T14:30:37;8.80;99.90
52435;DHT22;38354;52.892;6.148;2022-11-28T14:33:14;8.70;99.90
52435;DHT22;38354;52.892;6.148;2022-11-28T14:41:06;8.70;99.90
52435;DHT22;38354;52.892;6.148;2022-11-28T14:43:37;8.70;99.90
52435;DHT22;38354;52.892;6.148;2022-11-28T14:46:19;8.70;99.90
52435;DHT22;38354;52.892;6.148;2022-11-28T14:54:28;8.70;99.90
52435;DHT22;38354;52.892;6.148;2022-11-28T14:56:56;8.70;99.90
52435;DHT22;38354;52.892;6.148;2022-11-28T14:59:29;8.70;99.90
52435;DHT22;38354;52.892;6.148;2022-11-28T15:02:35;8.70;99.90
52435;DHT22;38354;52.892;6.148;2022-11-28T15:16:02;8.70;99.90
52435;DHT22;38354;52.892;6.148;2022-11-28T15:18:29;8.70;99.90
52435;DHT22;38354;52.892;6.148;2022-11-28T15:20:58;8.70;99.90
52435;DHT22;38354;52.892;6.148;2022-11-28T15:23:33;8.70;99.90
52435;DHT22;38354;52.892;6.148;2022-11-28T15:26:00;8.70;99.90
52435;DHT22;38354;52.892;6.148;2022-11-28T15:28:27;8.70;99.90
52435;DHT22;38354;52.892;6.148;2022-11-28T15:30:57;8.70;99.90
52435;DHT22;38354;52.892;6.148;2022-11-28T15:33:25;8.70;99.90
52435;DHT22;38354;52.892;6.148;2022-11-28T15:36:07;8.70;99.90
52435;DHT22;38354;52.892;6.148;2022-11-28T15:38:41;8.70;99.90
52435;DHT22;38354;52.892;6.148;2022-11-28T15:41:07;8.70;99.90
52435;DHT22;38354;52.892;6.148;2022-11-28T15:43:35;8.70;99.90
52435;DHT22;38354;52.892;6.148;2022-11-28T15:46:02;8.70;99.90
52435;DHT22;38354;52.892;6.148;2022-11-28T15:48:36;8.70;99.90
52435;DHT22;38354;52.892;6.148;2022-11-28T15:51:04;8.70;99.90
52435;DHT22;38354;52.892;6.148;2022-11-28T15:53:31;8.70;99.90
52435;DHT22;38354;52.892;6.148;2022-11-28T15:56:14;8.70;99.90
52435;DHT22;38354;52.892;6.148;2022-11-28T15:58:41;8.70;99.90
52435;DHT22;38354;52.892;6.148;2022-11-28T16:01:24;8.70;99.90
52435;DHT22;38354;52.892;6.148;2022-11-28T16:03:59;8.70;99.90
52435;DHT22;38354;52.892;6.148;2022-11-28T16:06:29;8.70;99.90
52435;DHT22;38354;52.892;6.148;2022-11-28T16:09:03;8.70;99.90
52435;DHT22;38354;52.892;6.148;2022-11-28T16:11:32;8.70;99.90
52435;DHT22;38354;52.892;6.148;2022-11-28T16:14:04;8.70;99.90
52435;DHT22;38354;52.892;6.148;2022-11-28T16:16:33;8.70;99.90
52435;DHT22;38354;52.892;6.148;2022-11-28T16:19:02;8.70;99.90
52435;DHT22;38354;52.892;6.148;2022-11-28T16:21:31;8.70;99.90
52435;DHT22;38354;52.892;6.148;2022-11-28T16:23:57;8.70;99.90
52435;DHT22;38354;52.892;6.148;2022-11-28T16:26:36;8.70;99.90
52435;DHT22;38354;52.892;6.148;2022-11-28T16:29:12;8.70;99.90
52435;DHT22;38354;52.892;6.148;2022-11-28T16:31:38;8.70;99.90
52435;DHT22;38354;52.892;6.148;2022-11-28T16:34:04;8.70;99.90
52435;DHT22;38354;52.892;6.148;2022-11-28T16:36:37;8.70;99.90
52435;DHT22;38354;52.892;6.148;2022-11-28T16:39:14;8.70;99.90
52435;DHT22;38354;52.892;6.148;2022-11-28T16:41:50;8.70;99.90
52435;DHT22;38354;52.892;6.148;2022-11-28T16:44:18;8.80;99.90
52435;DHT22;38354;52.892;6.148;2022-11-28T16:54:56;8.80;99.90
52435;DHT22;38354;52.892;6.148;2022-11-28T16:57:22;8.80;99.90
52435;DHT22;38354;52.892;6.148;2022-11-28T16:59:49;8.80;99.90
52435;DHT22;38354;52.892;6.148;2022-11-28T17:02:23;8.80;99.90
52435;DHT22;38354;52.892;6.148;2022-11-28T17:04:51;8.70;99.90
52435;DHT22;38354;52.892;6.148;2022-11-28T17:07:19;8.80;99.90
52435;DHT22;38354;52.892;6.148;2022-11-28T17:09:46;8.80;99.90
52435;DHT22;38354;52.892;6.148;2022-11-28T17:12:26;8.70;99.90
52435;DHT22;38354;52.892;6.148;2022-11-28T17:14:53;8.80;99.90
52435;DHT22;38354;52.892;6.148;2022-11-28T17:17:20;8.80;99.90
52435;DHT22;38354;52.892;6.148;2022-11-28T17:19:48;8.80;99.90
52435;DHT22;38354;52.892;6.148;2022-11-28T17:22:38;8.80;99.90
52435;DHT22;38354;52.892;6.148;2022-11-28T17:25:18;8.80;99.90
52435;DHT22;38354;52.892;6.148;2022-11-28T17:27:45;8.80;99.90
52435;DHT22;38354;52.892;6.148;2022-11-28T17:30:17;8.80;99.90
52435;DHT22;38354;52.892;6.148;2022-11-28T17:32:44;8.80;99.90
52435;DHT22;38354;52.892;6.148;2022-11-28T17:35:21;8.80;99.90
52435;DHT22;38354;52.892;6.148;2022-11-28T17:37:48;8.80;99.90
52435;DHT22;38354;52.892;6.148;2022-11-28T17:40:14;8.80;99.90
52435;DHT22;38354;52.892;6.148;2022-11-28T17:42:58;8.80;99.90
52435;DHT22;38354;52.892;6.148;2022-11-28T17:45:24;8.80;99.90
52435;DHT22;38354;52.892;6.148;2022-11-28T17:47:50;8.80;99.90
52435;DHT22;38354;52.892;6.148;2022-11-28T17:50:16;8.80;99.90
52435;DHT22;38354;52.892;6.148;2022-11-28T17:52:42;8.80;99.90
52435;DHT22;38354;52.892;6.148;2022-11-28T17:55:08;8.80;99.90
52435;DHT22;38354;52.892;6.148;2022-11-28T17:57:34;8.80;99.90
52435;DHT22;38354;52.892;6.148;2022-11-28T18:00:00;8.80;99.90
52435;DHT22;38354;52.892;6.148;2022-11-28T18:02:26;8.80;99.90
52435;DHT22;38354;52.892;6.148;2022-11-28T18:04:52;8.80;99.90
52435;DHT22;38354;52.892;6.148;2022-11-28T18:07:18;8.80;99.90
52435;DHT22;38354;52.892;6.148;2022-11-28T18:09:43;8.90;99.90
52435;DHT22;38354;52.892;6.148;2022-11-28T18:12:19;8.80;99.90
52435;DHT22;38354;52.892;6.148;2022-11-28T18:14:45;8.80;99.90
52435;DHT22;38354;52.892;6.148;2022-11-28T18:17:10;8.80;99.90
52435;DHT22;38354;52.892;6.148;2022-11-28T18:19:36;8.90;99.90
52435;DHT22;38354;52.892;6.148;2022-11-28T18:22:02;8.90;99.90
52435;DHT22;38354;52.892;6.148;2022-11-28T18:24:27;8.90;99.90
52435;DHT22;38354;52.892;6.148;2022-11-28T18:26:53;8.90;99.90
52435;DHT22;38354;52.892;6.148;2022-11-28T18:29:19;8.80;99.90
52435;DHT22;38354;52.892;6.148;2022-11-28T18:31:44;8.80;99.90
52435;DHT22;38354;52.892;6.148;2022-11-28T18:34:10;8.80;99.90
52435;DHT22;38354;52.892;6.148;2022-11-28T18:36:37;8.80;99.90
52435;DHT22;38354;52.892;6.148;2022-11-28T18:39:07;8.80;99.90
52435;DHT22;38354;52.892;6.148;2022-11-28T18:41:33;8.80;99.90
52435;DHT22;38354;52.892;6.148;2022-11-28T18:44:01;8.80;99.90
52435;DHT22;38354;52.892;6.148;2022-11-28T18:46:28;8.80;99.90
52435;DHT22;38354;52.892;6.148;2022-11-28T18:48:55;8.80;99.90
52435;DHT22;38354;52.892;6.148;2022-11-28T18:51:25;8.80;99.90
52435;DHT22;38354;52.892;6.148;2022-11-28T18:53:52;8.80;99.90
52435;DHT22;38354;52.892;6.148;2022-11-28T18:56:19;8.80;99.90
52435;DHT22;38354;52.892;6.148;2022-11-28T18:58:47;8.80;99.90
52435;DHT22;38354;52.892;6.148;2022-11-28T19:01:18;8.80;99.90
52435;DHT22;38354;52.892;6.148;2022-11-28T19:03:59;8.80;99.90
52435;DHT22;38354;52.892;6.148;2022-11-28T19:06:26;8.80;99.90
52435;DHT22;38354;52.892;6.148;2022-11-28T19:08:54;8.80;99.90
52435;DHT22;38354;52.892;6.148;2022-11-28T19:11:20;8.80;99.90
52435;DHT22;38354;52.892;6.148;2022-11-28T19:13:47;8.70;99.90
52435;DHT22;38354;52.892;6.148;2022-11-28T19:16:19;8.80;99.90
52435;DHT22;38354;52.892;6.148;2022-11-28T19:18:45;8.80;99.90
52435;DHT22;38354;52.892;6.148;2022-11-28T19:21:13;8.80;99.90
52435;DHT22;38354;52.892;6.148;2022-11-28T19:23:39;8.80;99.90
52435;DHT22;38354;52.892;6.148;2022-11-28T19:26:10;8.80;99.90
52435;DHT22;38354;52.892;6.148;2022-11-28T19:28:37;8.80;99.90
52435;DHT22;38354;52.892;6.148;2022-11-28T19:31:24;8.80;99.90
52435;DHT22;38354;52.892;6.148;2022-11-28T19:33:56;8.80;99.90
52435;DHT22;38354;52.892;6.148;2022-11-28T19:36:22;8.70;99.90
52435;DHT22;38354;52.892;6.148;2022-11-28T19:38:48;8.80;99.90
52435;DHT22;38354;52.892;6.148;2022-11-28T19:41:16;8.70;99.90
52435;DHT22;38354;52.892;6.148;2022-11-28T19:43:43;8.80;99.90
52435;DHT22;38354;52.892;6.148;2022-11-28T19:46:09;8.80;99.90
52435;DHT22;38354;52.892;6.148;2022-11-28T19:48:37;8.80;99.90
52435;DHT22;38354;52.892;6.148;2022-11-28T19:51:03;8.80;99.90
52435;DHT22;38354;52.892;6.148;2022-11-28T19:53:30;8.80;99.90
52435;DHT22;38354;52.892;6.148;2022-11-28T19:56:04;8.80;99.90
52435;DHT22;38354;52.892;6.148;2022-11-28T19:58:31;8.80;99.90
52435;DHT22;38354;52.892;6.148;2022-11-28T20:01:23;8.80;99.90
52435;DHT22;38354;52.892;6.148;2022-11-28T20:03:49;8.80;99.90
52435;DHT22;38354;52.892;6.148;2022-11-28T20:06:23;8.80;99.90
52435;DHT22;38354;52.892;6.148;2022-11-28T20:08:50;8.80;99.90
52435;DHT22;38354;52.892;6.148;2022-11-28T20:11:31;8.80;99.90
52435;DHT22;38354;52.892;6.148;2022-11-28T20:14:03;8.80;99.90
52435;DHT22;38354;52.892;6.148;2022-11-28T20:16:30;8.90;99.90
52435;DHT22;38354;52.892;6.148;2022-11-28T20:18:57;8.90;99.90
52435;DHT22;38354;52.892;6.148;2022-11-28T20:21:24;8.80;99.90
52435;DHT22;38354;52.892;6.148;2022-11-28T20:23:56;8.80;99.90
52435;DHT22;38354;52.892;6.148;2022-11-28T20:26:23;8.90;99.90
52435;DHT22;38354;52.892;6.148;2022-11-28T20:28:52;8.80;99.90
52435;DHT22;38354;52.892;6.148;2022-11-28T20:31:24;8.90;99.90
52435;DHT22;38354;52.892;6.148;2022-11-28T20:33:52;8.90;99.90
52435;DHT22;38354;52.892;6.148;2022-11-28T20:36:20;8.90;99.90
52435;DHT22;38354;52.892;6.148;2022-11-28T20:38:47;8.90;99.90
52435;DHT22;38354;52.892;6.148;2022-11-28T20:41:15;8.90;99.90
52435;DHT22;38354;52.892;6.148;2022-11-28T20:43:41;8.80;99.90
52435;DHT22;38354;52.892;6.148;2022-11-28T20:46:14;8.90;99.90
52435;DHT22;38354;52.892;6.148;2022-11-28T20:48:40;8.90;99.90
52435;DHT22;38354;52.892;6.148;2022-11-28T20:51:16;8.90;99.90
52435;DHT22;38354;52.892;6.148;2022-11-28T20:53:42;8.90;99.90
52435;DHT22;38354;52.892;6.148;2022-11-28T20:56:12;8.90;99.90
52435;DHT22;38354;52.892;6.148;2022-11-28T20:58:38;8.90;99.90
52435;DHT22;38354;52.892;6.148;2022-11-28T21:01:04;8.90;99.90
52435;DHT22;38354;52.892;6.148;2022-11-28T21:03:30;8.90;99.90
52435;DHT22;38354;52.892;6.148;2022-11-28T21:05:56;9.00;99.90
52435;DHT22;38354;52.892;6.148;2022-11-28T21:08:21;8.90;99.90
52435;DHT22;38354;52.892;6.148;2022-11-28T21:10:47;8.90;99.90
52435;DHT22;38354;52.892;6.148;2022-11-28T21:13:13;8.90;99.90
52435;DHT22;38354;52.892;6.148;2022-11-28T21:15:43;8.90;99.90
52435;DHT22;38354;52.892;6.148;2022-11-28T21:18:13;8.90;99.90
52435;DHT22;38354;52.892;6.148;2022-11-28T21:20:40;8.90;99.90
52435;DHT22;38354;52.892;6.148;2022-11-28T21:23:09;9.00;99.90
52435;DHT22;38354;52.892;6.148;2022-11-28T21:25:36;8.90;99.90
52435;DHT22;38354;52.892;6.148;2022-11-28T21:28:02;8.90;99.90
52435;DHT22;38354;52.892;6.148;2022-11-28T21:30:28;9.00;99.90
52435;DHT22;38354;52.892;6.148;2022-11-28T21:32:53;9.00;99.90
52435;DHT22;38354;52.892;6.148;2022-11-28T21:35:19;8.90;99.90
52435;DHT22;38354;52.892;6.148;2022-11-28T21:37:45;8.90;99.90
52435;DHT22;38354;52.892;6.148;2022-11-28T21:40:11;8.90;99.90
52435;DHT22;38354;52.892;6.148;2022-11-28T21:42:37;8.90;99.90
52435;DHT22;38354;52.892;6.148;2022-11-28T21:45:02;8.90;99.90
52435;DHT22;38354;52.892;6.148;2022-11-28T21:47:28;8.90;99.90
52435;DHT22;38354;52.892;6.148;2022-11-28T21:49:54;8.90;99.90
52435;DHT22;38354;52.892;6.148;2022-11-28T21:52:19;8.90;99.90
52435;DHT22;38354;52.892;6.148;2022-11-28T21:54:49;8.90;99.90
52435;DHT22;38354;52.892;6.148;2022-11-28T21:57:17;8.90;99.90
52435;DHT22;38354;52.892;6.148;2022-11-28T21:59:43;8.80;99.90
52435;DHT22;38354;52.892;6.148;2022-11-28T22:02:13;8.80;99.90
52435;DHT22;38354;52.892;6.148;2022-11-28T22:04:39;8.80;99.90
52435;DHT22;38354;52.892;6.148;2022-11-28T22:07:05;8.80;99.90
52435;DHT22;38354;52.892;6.148;2022-11-28T22:09:31;8.80;99.90
52435;DHT22;38354;52.892;6.148;2022-11-28T22:11:57;8.70;99.90
52435;DHT22;38354;52.892;6.148;2022-11-28T22:14:22;8.80;99.90
52435;DHT22;38354;52.892;6.148;2022-11-28T22:16:48;8.80;99.90
52435;DHT22;38354;52.892;6.148;2022-11-28T22:19:14;8.80;99.90
52435;DHT22;38354;52.892;6.148;2022-11-28T22:21:39;8.80;99.90
52435;DHT22;38354;52.892;6.148;2022-11-28T22:24:05;8.70;99.90
52435;DHT22;38354;52.892;6.148;2022-11-28T22:26:31;8.80;99.90
52435;DHT22;38354;52.892;6.148;2022-11-28T22:28:57;8.70;99.90
52435;DHT22;38354;52.892;6.148;2022-11-28T22:31:23;8.70;99.90
52435;DHT22;38354;52.892;6.148;2022-11-28T22:33:49;8.70;99.90
52435;DHT22;38354;52.892;6.148;2022-11-28T22:36:17;8.70;99.90
52435;DHT22;38354;52.892;6.148;2022-11-28T22:38:44;8.70;99.90
52435;DHT22;38354;52.892;6.148;2022-11-28T22:41:13;8.70;99.90
52435;DHT22;38354;52.892;6.148;2022-11-28T22:43:39;8.70;99.90
52435;DHT22;38354;52.892;6.148;2022-11-28T22:46:05;8.70;99.90
52435;DHT22;38354;52.892;6.148;2022-11-28T22:48:32;8.60;99.90
52435;DHT22;38354;52.892;6.148;2022-11-28T22:50:58;8.60;99.90
52435;DHT22;38354;52.892;6.148;2022-11-28T22:53:24;8.60;99.90